• Join FlightAware (Why Join?)
  • Login
  • US Flag 
08:17AM EDT


 

Airport Tracker/Info


-or-


 

Live Flight TrackerFlight Track Log ✈ N449ND ✈ 26-Jun-2014 ✈ KFPR - KFPR

Flight Track Log - Related Links

Times and Time Zones

All times are in EDT time to prevent confusion due to time zone crossing. See the N449ND flight status page for this flight to view local times or setup timezone preferences in your user account.

Time Position Orientation Groundspeed Altitude Reporting Facility
EDT Latitude Longitude Course Direction KTS MPH feet Rate Location/Type
06:26PM 27.3786 -80.7789 170° South 89 102 3,400  Level Miami Center
06:28PM 27.4064 -80.7283 58° Northeast 95 109 3,100 -180 Descending Miami Center
06:29PM 27.4147 -80.6981 73° East 97 112 3,000  Descending Miami Center
06:30PM 27.4228 -80.6669 74° East 97 112 3,100  Climbing Miami Center
06:31PM 27.4975 -80.3726 North  Level Estimated
06:31PM 27.4300 -80.6369 75° East 97 112 3,100  Level Miami Center
06:32PM 27.4975 -80.3726 170° South  Level Estimated
06:32PM 27.4406 -80.6061 69° East 101 116 3,100  Level Miami Center
06:33PM 27.4575 -80.5794 54° Northeast 101 116 3,100  Level Miami Center
06:34PM 27.4725 -80.5525 58° Northeast 102 117 3,100  Level Miami Center
06:37PM 27.5358 -80.4825 50° Northeast 104 120 3,100  Level Miami Center
06:38PM 27.5636 -80.4703 21° North 106 122 3,100  Level Miami Center
06:39PM 27.5650 -80.5028 273° West 107 123 3,100  Level Miami Center
06:41PM 27.5803 -80.5631 50° Northeast 102 117 3,100  Level Miami Center
06:43PM 27.6250 -80.6094 16° North 105 121 3,100  Level Miami Center
06:44PM 27.6550 -80.6183 345° North 106 122 3,100  Level Miami Center
06:45PM 27.6814 -80.6228 352° North 100 115 3,100  Level Miami Center
06:46PM 27.7086 -80.6203 North 95 109 3,100 -60 Level Miami Center
06:47PM 27.7347 -80.6197 North 95 109 3,000 -420 Descending Miami Center
06:48PM 27.7247 -80.6342 232° Southwest 85 98 2,300 -540 Descending Miami Center
06:49PM 27.7186 -80.6072 104° East 84 97 1,900 -360 Descending Miami Center
06:50PM 27.7125 -80.5831 106° East 84 97 1,600 -180 Descending Miami Center
06:52PM 27.7025 -80.5569 113° Southeast 84 97 1,600 -180 Level Miami Center
06:53PM 27.6936 -80.5336 113° Southeast 82 94 1,300 -180 Descending Miami Center
06:54PM 27.6842 -80.5075 112° Southeast 82 94 1,300 -60 Level Miami Center
06:55PM 27.6758 -80.4825 111° Southeast 83 96 1,200 -300 Descending Miami Center
06:57PM 27.6614 -80.4394 111° Southeast 75 86 500 -180 Descending Miami Center
06:58PM 27.6536 -80.4153 110° East 75 86 800 420 Climbing Miami Center
06:59PM 27.6514 -80.3903 96° East 75 86 1,400 540 Climbing Miami Center
07:00PM 27.6481 -80.3650 98° East 82 94 2,000 480 Climbing Miami Center
07:01PM 27.6417 -80.3406 106° East 82 94 2,500 480 Climbing Miami Center
07:02PM 27.6375 -80.3122 99° East 84 97 3,000 240 Climbing Miami Center
07:03PM 27.6167 -80.3122 180° South 102 117 3,100  Climbing Miami Center
07:04PM 27.6122 -80.3428 261° West 101 116 3,100  Level Miami Center
07:05PM 27.6075 -80.3733 260° West 99 114 3,100  Level Miami Center
07:07PM 27.5975 -80.4383 260° West 100 115 3,100  Level Miami Center
07:08PM 27.5931 -80.4700 261° West 100 115 3,100  Level Miami Center
07:09PM 27.5878 -80.5000 259° West 99 114 3,100  Level Miami Center
07:10PM 27.5831 -80.5297 260° West 99 114 3,100  Level Miami Center
07:11PM 27.5769 -80.5614 258° West 98 113 3,100  Level Miami Center
07:13PM 27.5650 -80.6214 90° East 96 110 3,100 -180 Level Miami Center
07:14PM 27.5483 -80.6375 221° Southwest 98 113 2,700 -540 Descending Miami Center
07:15PM 27.5236 -80.6344 174° South 88 101 2,100 -300 Descending Miami Center
07:16PM 27.5106 -80.6122 124° Southeast 90 104 2,100  Level Miami Center
07:17PM 27.5033 -80.5847 106° East 90 104 2,100  Level Miami Center
07:18PM 27.4992 -80.5583 100° East 90 104 2,100 -120 Level Miami Center
07:19PM 27.4989 -80.5314 91° East 84 97 1,900 -180 Descending Miami Center
07:21PM 27.4986 -80.4747 90° East 85 98 1,700 -240 Descending Miami Center
07:22PM 27.4981 -80.4533 92° East 77 89 1,300 -420 Descending Miami Center
07:23PM 27.4978 -80.4275 91° East 77 89 900 -420 Descending Miami Center
07:24PM 27.4978 -80.4017 90° East 78 90 500 -420 Descending Miami Center